sensor_id;sensor_type;location;lat;lon;timestamp;P1;durP1;ratioP1;P2;durP2;ratioP2
56481;SDS011;42384;45.186;19.958;2024-03-02T00:02:06;28.80;;;19.15;;
56481;SDS011;42384;45.186;19.958;2024-03-02T00:04:32;30.15;;;19.23;;
56481;SDS011;42384;45.186;19.958;2024-03-02T00:06:58;28.67;;;18.92;;
56481;SDS011;42384;45.186;19.958;2024-03-02T00:09:24;29.60;;;19.03;;
56481;SDS011;42384;45.186;19.958;2024-03-02T00:11:51;29.52;;;18.60;;
56481;SDS011;42384;45.186;19.958;2024-03-02T00:14:17;27.98;;;18.98;;
56481;SDS011;42384;45.186;19.958;2024-03-02T00:16:43;31.48;;;19.55;;
56481;SDS011;42384;45.186;19.958;2024-03-02T00:19:09;28.80;;;19.30;;
56481;SDS011;42384;45.186;19.958;2024-03-02T00:21:36;29.38;;;18.33;;
56481;SDS011;42384;45.186;19.958;2024-03-02T00:24:06;28.23;;;19.38;;
56481;SDS011;42384;45.186;19.958;2024-03-02T00:26:34;29.85;;;19.13;;
56481;SDS011;42384;45.186;19.958;2024-03-02T00:29:01;28.63;;;18.70;;
56481;SDS011;42384;45.186;19.958;2024-03-02T00:31:27;33.53;;;19.77;;
56481;SDS011;42384;45.186;19.958;2024-03-02T00:33:54;30.50;;;19.42;;
56481;SDS011;42384;45.186;19.958;2024-03-02T00:36:24;39.90;;;21.63;;
56481;SDS011;42384;45.186;19.958;2024-03-02T00:38:51;32.17;;;20.33;;
56481;SDS011;42384;45.186;19.958;2024-03-02T00:41:22;39.40;;;22.77;;
56481;SDS011;42384;45.186;19.958;2024-03-02T00:44:04;34.08;;;22.65;;
56481;SDS011;42384;45.186;19.958;2024-03-02T00:49:01;37.10;;;21.33;;
56481;SDS011;42384;45.186;19.958;2024-03-02T00:51:29;36.35;;;20.83;;
56481;SDS011;42384;45.186;19.958;2024-03-02T00:53:57;37.20;;;23.17;;
56481;SDS011;42384;45.186;19.958;2024-03-02T00:56:24;37.40;;;23.02;;
56481;SDS011;42384;45.186;19.958;2024-03-02T00:58:50;39.30;;;23.17;;
56481;SDS011;42384;45.186;19.958;2024-03-02T01:01:17;38.30;;;22.92;;
56481;SDS011;42384;45.186;19.958;2024-03-02T01:03:45;37.22;;;21.60;;
56481;SDS011;42384;45.186;19.958;2024-03-02T01:06:11;35.67;;;23.33;;
56481;SDS011;42384;45.186;19.958;2024-03-02T01:08:38;34.97;;;22.50;;
56481;SDS011;42384;45.186;19.958;2024-03-02T01:11:04;34.25;;;20.90;;
56481;SDS011;42384;45.186;19.958;2024-03-02T01:13:30;33.00;;;21.13;;
56481;SDS011;42384;45.186;19.958;2024-03-02T01:15:57;32.23;;;20.90;;
56481;SDS011;42384;45.186;19.958;2024-03-02T01:18:23;36.17;;;22.00;;
56481;SDS011;42384;45.186;19.958;2024-03-02T01:20:50;31.10;;;21.10;;
56481;SDS011;42384;45.186;19.958;2024-03-02T01:23:23;33.28;;;21.63;;
56481;SDS011;42384;45.186;19.958;2024-03-02T01:25:50;32.22;;;20.20;;
56481;SDS011;42384;45.186;19.958;2024-03-02T01:28:17;30.67;;;19.90;;
56481;SDS011;42384;45.186;19.958;2024-03-02T01:30:44;32.60;;;20.95;;
56481;SDS011;42384;45.186;19.958;2024-03-02T01:33:10;34.50;;;21.63;;
56481;SDS011;42384;45.186;19.958;2024-03-02T01:35:37;30.90;;;20.37;;
56481;SDS011;42384;45.186;19.958;2024-03-02T01:38:03;30.30;;;19.77;;
56481;SDS011;42384;45.186;19.958;2024-03-02T01:40:34;26.15;;;18.42;;
56481;SDS011;42384;45.186;19.958;2024-03-02T01:43:00;29.15;;;19.52;;
56481;SDS011;42384;45.186;19.958;2024-03-02T01:45:28;25.00;;;17.52;;
56481;SDS011;42384;45.186;19.958;2024-03-02T01:47:54;25.52;;;17.13;;
56481;SDS011;42384;45.186;19.958;2024-03-02T01:50:42;24.90;;;17.13;;
56481;SDS011;42384;45.186;19.958;2024-03-02T01:53:07;25.52;;;16.15;;
56481;SDS011;42384;45.186;19.958;2024-03-02T01:55:35;26.30;;;16.38;;
56481;SDS011;42384;45.186;19.958;2024-03-02T01:58:01;25.55;;;15.38;;
56481;SDS011;42384;45.186;19.958;2024-03-02T02:00:27;24.65;;;15.98;;
56481;SDS011;42384;45.186;19.958;2024-03-02T02:02:55;24.88;;;15.95;;
56481;SDS011;42384;45.186;19.958;2024-03-02T02:05:22;25.23;;;15.93;;
56481;SDS011;42384;45.186;19.958;2024-03-02T02:07:49;22.80;;;15.35;;
56481;SDS011;42384;45.186;19.958;2024-03-02T02:10:15;20.97;;;15.03;;
56481;SDS011;42384;45.186;19.958;2024-03-02T02:12:41;22.10;;;15.48;;
56481;SDS011;42384;45.186;19.958;2024-03-02T02:15:23;22.23;;;13.93;;
56481;SDS011;42384;45.186;19.958;2024-03-02T02:17:50;20.65;;;14.02;;
56481;SDS011;42384;45.186;19.958;2024-03-02T02:20:16;19.48;;;14.25;;
56481;SDS011;42384;45.186;19.958;2024-03-02T02:22:56;24.98;;;15.38;;
56481;SDS011;42384;45.186;19.958;2024-03-02T02:25:23;23.10;;;14.32;;
56481;SDS011;42384;45.186;19.958;2024-03-02T02:27:49;23.30;;;14.80;;
56481;SDS011;42384;45.186;19.958;2024-03-02T02:30:19;20.40;;;13.97;;
56481;SDS011;42384;45.186;19.958;2024-03-02T02:32:46;20.80;;;14.27;;
56481;SDS011;42384;45.186;19.958;2024-03-02T02:35:12;20.98;;;14.13;;
56481;SDS011;42384;45.186;19.958;2024-03-02T02:37:38;19.50;;;13.27;;
56481;SDS011;42384;45.186;19.958;2024-03-02T02:40:05;20.20;;;13.40;;
56481;SDS011;42384;45.186;19.958;2024-03-02T02:42:31;20.00;;;14.10;;
56481;SDS011;42384;45.186;19.958;2024-03-02T02:44:57;19.00;;;13.30;;
56481;SDS011;42384;45.186;19.958;2024-03-02T02:47:24;22.83;;;13.80;;
56481;SDS011;42384;45.186;19.958;2024-03-02T02:49:51;18.58;;;12.75;;
56481;SDS011;42384;45.186;19.958;2024-03-02T02:52:18;18.00;;;12.30;;
56481;SDS011;42384;45.186;19.958;2024-03-02T02:54:44;18.10;;;12.07;;
56481;SDS011;42384;45.186;19.958;2024-03-02T02:57:10;18.67;;;12.30;;
56481;SDS011;42384;45.186;19.958;2024-03-02T02:59:36;19.13;;;12.30;;
56481;SDS011;42384;45.186;19.958;2024-03-02T03:02:02;19.85;;;13.05;;
56481;SDS011;42384;45.186;19.958;2024-03-02T03:04:29;18.92;;;12.02;;
56481;SDS011;42384;45.186;19.958;2024-03-02T03:06:55;16.13;;;11.47;;
56481;SDS011;42384;45.186;19.958;2024-03-02T03:09:21;18.63;;;11.80;;
56481;SDS011;42384;45.186;19.958;2024-03-02T03:11:47;16.65;;;11.75;;
56481;SDS011;42384;45.186;19.958;2024-03-02T03:14:14;16.98;;;12.02;;
56481;SDS011;42384;45.186;19.958;2024-03-02T03:16:40;15.73;;;11.17;;
56481;SDS011;42384;45.186;19.958;2024-03-02T03:19:06;16.45;;;11.80;;
56481;SDS011;42384;45.186;19.958;2024-03-02T03:21:33;17.05;;;11.57;;
56481;SDS011;42384;45.186;19.958;2024-03-02T03:23:59;20.27;;;12.17;;
56481;SDS011;42384;45.186;19.958;2024-03-02T03:26:26;17.48;;;11.68;;
56481;SDS011;42384;45.186;19.958;2024-03-02T03:28:52;17.83;;;10.97;;
56481;SDS011;42384;45.186;19.958;2024-03-02T03:31:18;15.97;;;11.10;;
56481;SDS011;42384;45.186;19.958;2024-03-02T03:33:45;18.53;;;12.10;;
56481;SDS011;42384;45.186;19.958;2024-03-02T03:36:11;16.43;;;11.20;;
56481;SDS011;42384;45.186;19.958;2024-03-02T03:38:37;16.40;;;10.90;;
56481;SDS011;42384;45.186;19.958;2024-03-02T03:41:03;18.58;;;11.45;;
56481;SDS011;42384;45.186;19.958;2024-03-02T03:45:56;19.55;;;11.45;;
56481;SDS011;42384;45.186;19.958;2024-03-02T03:48:23;17.60;;;11.10;;
56481;SDS011;42384;45.186;19.958;2024-03-02T03:50:55;17.73;;;11.82;;
56481;SDS011;42384;45.186;19.958;2024-03-02T03:53:21;15.47;;;10.73;;
56481;SDS011;42384;45.186;19.958;2024-03-02T03:55:49;18.13;;;11.48;;
56481;SDS011;42384;45.186;19.958;2024-03-02T03:58:15;15.73;;;11.70;;
56481;SDS011;42384;45.186;19.958;2024-03-02T04:00:44;17.92;;;11.38;;
56481;SDS011;42384;45.186;19.958;2024-03-02T04:03:10;14.57;;;11.13;;
56481;SDS011;42384;45.186;19.958;2024-03-02T04:05:36;17.70;;;12.30;;
56481;SDS011;42384;45.186;19.958;2024-03-02T04:08:03;16.67;;;11.60;;
56481;SDS011;42384;45.186;19.958;2024-03-02T04:10:30;15.63;;;11.48;;
56481;SDS011;42384;45.186;19.958;2024-03-02T04:12:56;16.48;;;12.07;;
56481;SDS011;42384;45.186;19.958;2024-03-02T04:15:22;16.43;;;12.07;;
56481;SDS011;42384;45.186;19.958;2024-03-02T04:17:49;17.52;;;11.40;;
56481;SDS011;42384;45.186;19.958;2024-03-02T04:20:15;19.67;;;12.33;;
56481;SDS011;42384;45.186;19.958;2024-03-02T04:22:41;17.60;;;11.97;;
56481;SDS011;42384;45.186;19.958;2024-03-02T04:25:08;16.95;;;11.98;;
56481;SDS011;42384;45.186;19.958;2024-03-02T04:30:00;16.00;;;11.20;;
56481;SDS011;42384;45.186;19.958;2024-03-02T04:32:27;17.23;;;11.85;;
56481;SDS011;42384;45.186;19.958;2024-03-02T04:34:53;17.57;;;11.57;;
56481;SDS011;42384;45.186;19.958;2024-03-02T04:37:19;16.35;;;11.02;;
56481;SDS011;42384;45.186;19.958;2024-03-02T04:39:46;15.03;;;11.67;;
56481;SDS011;42384;45.186;19.958;2024-03-02T04:42:12;15.33;;;10.97;;
56481;SDS011;42384;45.186;19.958;2024-03-02T04:44:38;13.80;;;10.32;;
56481;SDS011;42384;45.186;19.958;2024-03-02T04:47:04;16.77;;;11.90;;
56481;SDS011;42384;45.186;19.958;2024-03-02T04:49:31;18.17;;;11.98;;
56481;SDS011;42384;45.186;19.958;2024-03-02T04:51:57;15.63;;;10.93;;
56481;SDS011;42384;45.186;19.958;2024-03-02T04:54:23;15.90;;;10.80;;
56481;SDS011;42384;45.186;19.958;2024-03-02T04:56:50;17.10;;;11.60;;
56481;SDS011;42384;45.186;19.958;2024-03-02T04:59:16;15.35;;;10.45;;
56481;SDS011;42384;45.186;19.958;2024-03-02T05:01:43;15.90;;;10.70;;
56481;SDS011;42384;45.186;19.958;2024-03-02T05:04:10;13.98;;;10.00;;
56481;SDS011;42384;45.186;19.958;2024-03-02T05:06:39;15.68;;;10.98;;
56481;SDS011;42384;45.186;19.958;2024-03-02T05:09:06;15.10;;;10.95;;
56481;SDS011;42384;45.186;19.958;2024-03-02T05:11:32;15.35;;;11.02;;
56481;SDS011;42384;45.186;19.958;2024-03-02T05:14:02;17.73;;;11.85;;
56481;SDS011;42384;45.186;19.958;2024-03-02T05:16:28;16.30;;;11.25;;
56481;SDS011;42384;45.186;19.958;2024-03-02T05:18:54;14.40;;;10.23;;
56481;SDS011;42384;45.186;19.958;2024-03-02T05:21:21;15.30;;;9.65;;
56481;SDS011;42384;45.186;19.958;2024-03-02T05:23:47;16.37;;;10.47;;
56481;SDS011;42384;45.186;19.958;2024-03-02T05:26:13;14.77;;;9.93;;
56481;SDS011;42384;45.186;19.958;2024-03-02T05:28:40;12.10;;;9.43;;
56481;SDS011;42384;45.186;19.958;2024-03-02T05:31:06;14.20;;;9.93;;
56481;SDS011;42384;45.186;19.958;2024-03-02T05:33:32;12.77;;;9.67;;
56481;SDS011;42384;45.186;19.958;2024-03-02T05:35:58;13.00;;;9.20;;
56481;SDS011;42384;45.186;19.958;2024-03-02T05:38:27;11.68;;;8.98;;
56481;SDS011;42384;45.186;19.958;2024-03-02T05:40:53;14.17;;;8.77;;
56481;SDS011;42384;45.186;19.958;2024-03-02T05:43:19;13.83;;;9.03;;
56481;SDS011;42384;45.186;19.958;2024-03-02T05:45:46;13.13;;;8.82;;
56481;SDS011;42384;45.186;19.958;2024-03-02T05:48:12;12.17;;;8.50;;
56481;SDS011;42384;45.186;19.958;2024-03-02T05:50:38;13.93;;;8.70;;
56481;SDS011;42384;45.186;19.958;2024-03-02T05:53:04;14.23;;;9.73;;
56481;SDS011;42384;45.186;19.958;2024-03-02T05:55:30;12.43;;;8.63;;
56481;SDS011;42384;45.186;19.958;2024-03-02T05:57:57;11.17;;;8.23;;
56481;SDS011;42384;45.186;19.958;2024-03-02T06:00:43;12.55;;;8.75;;
56481;SDS011;42384;45.186;19.958;2024-03-02T06:03:09;12.07;;;8.40;;
56481;SDS011;42384;45.186;19.958;2024-03-02T06:05:36;12.55;;;7.97;;
56481;SDS011;42384;45.186;19.958;2024-03-02T06:08:02;12.73;;;8.60;;
56481;SDS011;42384;45.186;19.958;2024-03-02T06:10:28;11.17;;;8.30;;
56481;SDS011;42384;45.186;19.958;2024-03-02T06:12:55;12.00;;;8.70;;
56481;SDS011;42384;45.186;19.958;2024-03-02T06:15:21;12.17;;;8.33;;
56481;SDS011;42384;45.186;19.958;2024-03-02T06:17:47;12.10;;;8.15;;
56481;SDS011;42384;45.186;19.958;2024-03-02T06:20:14;11.90;;;7.47;;
56481;SDS011;42384;45.186;19.958;2024-03-02T06:22:40;9.67;;;7.00;;
56481;SDS011;42384;45.186;19.958;2024-03-02T06:25:06;9.40;;;6.60;;
56481;SDS011;42384;45.186;19.958;2024-03-02T06:27:33;8.98;;;6.50;;
56481;SDS011;42384;45.186;19.958;2024-03-02T06:29:59;10.80;;;6.87;;
56481;SDS011;42384;45.186;19.958;2024-03-02T06:32:26;10.10;;;6.67;;
56481;SDS011;42384;45.186;19.958;2024-03-02T06:34:52;10.23;;;6.25;;
56481;SDS011;42384;45.186;19.958;2024-03-02T06:37:19;8.52;;;6.03;;
56481;SDS011;42384;45.186;19.958;2024-03-02T06:39:45;6.77;;;4.63;;
56481;SDS011;42384;45.186;19.958;2024-03-02T06:42:11;7.03;;;5.37;;
56481;SDS011;42384;45.186;19.958;2024-03-02T06:44:37;6.68;;;4.40;;
56481;SDS011;42384;45.186;19.958;2024-03-02T06:47:04;7.57;;;4.60;;
56481;SDS011;42384;45.186;19.958;2024-03-02T06:49:30;8.02;;;5.07;;
56481;SDS011;42384;45.186;19.958;2024-03-02T06:51:56;6.35;;;4.10;;
56481;SDS011;42384;45.186;19.958;2024-03-02T06:54:23;7.10;;;4.83;;
56481;SDS011;42384;45.186;19.958;2024-03-02T06:56:49;7.03;;;4.33;;
56481;SDS011;42384;45.186;19.958;2024-03-02T06:59:15;6.60;;;4.63;;
56481;SDS011;42384;45.186;19.958;2024-03-02T07:01:41;6.35;;;4.35;;
56481;SDS011;42384;45.186;19.958;2024-03-02T07:06:35;7.78;;;4.18;;
56481;SDS011;42384;45.186;19.958;2024-03-02T07:09:01;7.90;;;4.70;;
56481;SDS011;42384;45.186;19.958;2024-03-02T07:11:27;6.00;;;3.60;;
56481;SDS011;42384;45.186;19.958;2024-03-02T07:13:53;7.15;;;3.42;;
56481;SDS011;42384;45.186;19.958;2024-03-02T07:16:20;6.15;;;3.72;;
56481;SDS011;42384;45.186;19.958;2024-03-02T07:18:46;5.57;;;3.60;;
56481;SDS011;42384;45.186;19.958;2024-03-02T07:21:17;4.80;;;3.30;;
56481;SDS011;42384;45.186;19.958;2024-03-02T07:23:43;5.82;;;3.50;;
56481;SDS011;42384;45.186;19.958;2024-03-02T07:26:09;6.00;;;4.00;;
56481;SDS011;42384;45.186;19.958;2024-03-02T07:28:36;8.60;;;4.80;;
56481;SDS011;42384;45.186;19.958;2024-03-02T07:31:03;4.77;;;3.63;;
56481;SDS011;42384;45.186;19.958;2024-03-02T07:33:29;5.00;;;3.03;;
56481;SDS011;42384;45.186;19.958;2024-03-02T07:35:56;5.70;;;3.35;;
56481;SDS011;42384;45.186;19.958;2024-03-02T07:38:25;5.95;;;3.47;;
56481;SDS011;42384;45.186;19.958;2024-03-02T07:40:51;5.90;;;3.42;;
56481;SDS011;42384;45.186;19.958;2024-03-02T07:43:21;3.92;;;2.83;;
56481;SDS011;42384;45.186;19.958;2024-03-02T07:45:47;4.80;;;3.25;;
56481;SDS011;42384;45.186;19.958;2024-03-02T07:48:14;5.60;;;3.40;;
56481;SDS011;42384;45.186;19.958;2024-03-02T07:50:41;7.55;;;3.63;;
56481;SDS011;42384;45.186;19.958;2024-03-02T07:53:08;4.97;;;2.97;;
56481;SDS011;42384;45.186;19.958;2024-03-02T07:55:34;4.90;;;3.08;;
56481;SDS011;42384;45.186;19.958;2024-03-02T07:58:01;6.07;;;3.20;;
56481;SDS011;42384;45.186;19.958;2024-03-02T08:00:27;6.63;;;3.97;;
56481;SDS011;42384;45.186;19.958;2024-03-02T08:02:54;6.68;;;3.65;;
56481;SDS011;42384;45.186;19.958;2024-03-02T08:07:47;6.82;;;4.50;;
56481;SDS011;42384;45.186;19.958;2024-03-02T08:10:17;6.63;;;3.65;;
56481;SDS011;42384;45.186;19.958;2024-03-02T08:12:44;8.00;;;3.17;;
56481;SDS011;42384;45.186;19.958;2024-03-02T08:15:11;5.07;;;3.75;;
56481;SDS011;42384;45.186;19.958;2024-03-02T08:17:40;7.18;;;3.92;;
56481;SDS011;42384;45.186;19.958;2024-03-02T08:20:15;6.63;;;4.07;;
56481;SDS011;42384;45.186;19.958;2024-03-02T08:22:42;6.22;;;3.90;;
56481;SDS011;42384;45.186;19.958;2024-03-02T08:25:08;8.55;;;5.80;;
56481;SDS011;42384;45.186;19.958;2024-03-02T08:27:34;11.20;;;6.85;;
56481;SDS011;42384;45.186;19.958;2024-03-02T08:30:01;9.02;;;5.47;;
56481;SDS011;42384;45.186;19.958;2024-03-02T08:32:31;7.15;;;4.70;;
56481;SDS011;42384;45.186;19.958;2024-03-02T08:34:57;7.93;;;4.63;;
56481;SDS011;42384;45.186;19.958;2024-03-02T08:37:23;7.10;;;4.60;;
56481;SDS011;42384;45.186;19.958;2024-03-02T08:39:50;7.30;;;4.13;;
56481;SDS011;42384;45.186;19.958;2024-03-02T08:42:16;8.25;;;5.82;;
56481;SDS011;42384;45.186;19.958;2024-03-02T08:44:42;18.05;;;8.13;;
56481;SDS011;42384;45.186;19.958;2024-03-02T08:47:09;17.13;;;9.65;;
56481;SDS011;42384;45.186;19.958;2024-03-02T08:49:35;17.77;;;8.93;;
56481;SDS011;42384;45.186;19.958;2024-03-02T08:52:01;13.02;;;7.28;;
56481;SDS011;42384;45.186;19.958;2024-03-02T08:54:28;12.87;;;7.20;;
56481;SDS011;42384;45.186;19.958;2024-03-02T08:56:54;18.65;;;9.60;;
56481;SDS011;42384;45.186;19.958;2024-03-02T08:59:20;9.93;;;7.28;;
56481;SDS011;42384;45.186;19.958;2024-03-02T09:01:47;15.30;;;8.15;;
56481;SDS011;42384;45.186;19.958;2024-03-02T09:04:13;18.67;;;11.07;;
56481;SDS011;42384;45.186;19.958;2024-03-02T09:06:40;17.65;;;11.13;;
56481;SDS011;42384;45.186;19.958;2024-03-02T09:09:06;15.85;;;11.68;;
56481;SDS011;42384;45.186;19.958;2024-03-02T09:11:32;18.13;;;12.98;;
56481;SDS011;42384;45.186;19.958;2024-03-02T09:13:58;17.60;;;13.63;;
56481;SDS011;42384;45.186;19.958;2024-03-02T09:16:25;23.08;;;14.30;;
56481;SDS011;42384;45.186;19.958;2024-03-02T09:18:56;20.98;;;13.52;;
56481;SDS011;42384;45.186;19.958;2024-03-02T09:21:22;19.33;;;10.98;;
56481;SDS011;42384;45.186;19.958;2024-03-02T09:23:50;17.60;;;12.40;;
56481;SDS011;42384;45.186;19.958;2024-03-02T09:26:17;18.88;;;11.25;;
56481;SDS011;42384;45.186;19.958;2024-03-02T09:28:45;17.90;;;12.18;;
56481;SDS011;42384;45.186;19.958;2024-03-02T09:31:11;18.90;;;11.68;;
56481;SDS011;42384;45.186;19.958;2024-03-02T09:33:37;17.17;;;11.85;;
56481;SDS011;42384;45.186;19.958;2024-03-02T09:36:16;22.23;;;12.73;;
56481;SDS011;42384;45.186;19.958;2024-03-02T09:38:42;16.33;;;11.70;;
56481;SDS011;42384;45.186;19.958;2024-03-02T09:41:09;17.08;;;10.82;;
56481;SDS011;42384;45.186;19.958;2024-03-02T09:43:35;17.13;;;12.38;;
56481;SDS011;42384;45.186;19.958;2024-03-02T09:46:02;21.95;;;12.82;;
56481;SDS011;42384;45.186;19.958;2024-03-02T09:48:28;26.80;;;14.18;;
56481;SDS011;42384;45.186;19.958;2024-03-02T09:50:55;23.67;;;14.40;;
56481;SDS011;42384;45.186;19.958;2024-03-02T09:53:22;19.85;;;14.27;;
56481;SDS011;42384;45.186;19.958;2024-03-02T09:55:48;19.52;;;12.90;;
56481;SDS011;42384;45.186;19.958;2024-03-02T09:58:14;18.90;;;13.02;;
56481;SDS011;42384;45.186;19.958;2024-03-02T10:00:41;24.27;;;16.67;;
56481;SDS011;42384;45.186;19.958;2024-03-02T10:03:11;23.15;;;15.55;;
56481;SDS011;42384;45.186;19.958;2024-03-02T10:05:38;22.88;;;16.10;;
56481;SDS011;42384;45.186;19.958;2024-03-02T10:08:04;24.92;;;16.88;;
56481;SDS011;42384;45.186;19.958;2024-03-02T10:10:38;23.52;;;16.27;;
56481;SDS011;42384;45.186;19.958;2024-03-02T10:13:08;31.27;;;20.73;;
56481;SDS011;42384;45.186;19.958;2024-03-02T10:15:35;23.23;;;15.13;;
56481;SDS011;42384;45.186;19.958;2024-03-02T10:18:02;24.05;;;16.50;;
56481;SDS011;42384;45.186;19.958;2024-03-02T10:20:29;24.23;;;16.23;;
56481;SDS011;42384;45.186;19.958;2024-03-02T10:22:56;26.35;;;18.60;;
56481;SDS011;42384;45.186;19.958;2024-03-02T10:25:28;28.75;;;18.17;;
56481;SDS011;42384;45.186;19.958;2024-03-02T10:27:57;29.40;;;19.40;;
56481;SDS011;42384;45.186;19.958;2024-03-02T10:30:23;31.98;;;20.20;;
56481;SDS011;42384;45.186;19.958;2024-03-02T10:32:50;28.27;;;19.58;;
56481;SDS011;42384;45.186;19.958;2024-03-02T10:35:16;31.88;;;21.45;;
56481;SDS011;42384;45.186;19.958;2024-03-02T10:37:42;32.80;;;20.52;;
56481;SDS011;42384;45.186;19.958;2024-03-02T10:40:10;27.50;;;19.58;;
56481;SDS011;42384;45.186;19.958;2024-03-02T10:42:37;27.80;;;19.83;;
56481;SDS011;42384;45.186;19.958;2024-03-02T10:45:05;27.92;;;19.02;;
56481;SDS011;42384;45.186;19.958;2024-03-02T10:47:31;29.52;;;20.52;;
56481;SDS011;42384;45.186;19.958;2024-03-02T10:49:59;29.00;;;19.85;;
56481;SDS011;42384;45.186;19.958;2024-03-02T10:52:26;30.67;;;20.20;;
56481;SDS011;42384;45.186;19.958;2024-03-02T10:54:54;32.08;;;21.90;;
56481;SDS011;42384;45.186;19.958;2024-03-02T10:57:21;32.15;;;21.35;;
56481;SDS011;42384;45.186;19.958;2024-03-02T10:59:56;27.95;;;19.88;;
56481;SDS011;42384;45.186;19.958;2024-03-02T11:02:22;26.63;;;18.00;;
56481;SDS011;42384;45.186;19.958;2024-03-02T11:04:50;30.80;;;19.08;;
56481;SDS011;42384;45.186;19.958;2024-03-02T11:07:19;26.90;;;18.27;;
56481;SDS011;42384;45.186;19.958;2024-03-02T11:09:54;26.65;;;20.00;;
56481;SDS011;42384;45.186;19.958;2024-03-02T11:12:31;25.38;;;18.13;;
56481;SDS011;42384;45.186;19.958;2024-03-02T11:14:58;27.85;;;17.73;;
56481;SDS011;42384;45.186;19.958;2024-03-02T11:17:26;33.78;;;21.65;;
56481;SDS011;42384;45.186;19.958;2024-03-02T11:19:53;27.30;;;19.90;;
56481;SDS011;42384;45.186;19.958;2024-03-02T11:22:19;35.47;;;21.77;;
56481;SDS011;42384;45.186;19.958;2024-03-02T11:24:49;28.83;;;21.77;;
56481;SDS011;42384;45.186;19.958;2024-03-02T11:27:20;28.65;;;21.55;;
56481;SDS011;42384;45.186;19.958;2024-03-02T11:30:02;31.27;;;20.77;;
56481;SDS011;42384;45.186;19.958;2024-03-02T11:32:28;30.65;;;22.00;;
56481;SDS011;42384;45.186;19.958;2024-03-02T11:34:54;57.40;;;35.88;;
56481;SDS011;42384;45.186;19.958;2024-03-02T11:37:21;30.42;;;22.95;;
56481;SDS011;42384;45.186;19.958;2024-03-02T11:39:50;37.63;;;25.70;;
56481;SDS011;42384;45.186;19.958;2024-03-02T11:42:17;30.15;;;21.42;;
56481;SDS011;42384;45.186;19.958;2024-03-02T11:44:46;29.65;;;20.65;;
56481;SDS011;42384;45.186;19.958;2024-03-02T11:47:16;32.97;;;22.05;;
56481;SDS011;42384;45.186;19.958;2024-03-02T11:49:48;26.17;;;19.05;;
56481;SDS011;42384;45.186;19.958;2024-03-02T11:52:15;28.92;;;21.58;;
56481;SDS011;42384;45.186;19.958;2024-03-02T11:54:45;33.83;;;22.17;;
56481;SDS011;42384;45.186;19.958;2024-03-02T11:57:15;23.50;;;17.35;;
56481;SDS011;42384;45.186;19.958;2024-03-02T11:59:42;26.67;;;17.48;;
56481;SDS011;42384;45.186;19.958;2024-03-02T12:02:13;17.65;;;10.45;;
56481;SDS011;42384;45.186;19.958;2024-03-02T12:04:40;21.00;;;12.95;;
56481;SDS011;42384;45.186;19.958;2024-03-02T12:07:08;25.38;;;15.55;;
56481;SDS011;42384;45.186;19.958;2024-03-02T12:12:07;20.02;;;12.30;;
56481;SDS011;42384;45.186;19.958;2024-03-02T12:14:34;22.33;;;11.90;;
56481;SDS011;42384;45.186;19.958;2024-03-02T12:17:01;15.48;;;10.70;;
56481;SDS011;42384;45.186;19.958;2024-03-02T12:19:29;19.50;;;12.20;;
56481;SDS011;42384;45.186;19.958;2024-03-02T12:21:56;20.35;;;10.55;;
56481;SDS011;42384;45.186;19.958;2024-03-02T12:24:23;18.17;;;11.63;;
56481;SDS011;42384;45.186;19.958;2024-03-02T12:29:15;15.48;;;9.70;;
56481;SDS011;42384;45.186;19.958;2024-03-02T12:31:42;86.10;;;56.33;;
56481;SDS011;42384;45.186;19.958;2024-03-02T12:34:11;19.17;;;11.15;;
56481;SDS011;42384;45.186;19.958;2024-03-02T12:36:38;30.33;;;18.95;;
56481;SDS011;42384;45.186;19.958;2024-03-02T12:39:04;18.85;;;10.68;;
56481;SDS011;42384;45.186;19.958;2024-03-02T12:41:30;27.63;;;18.75;;
56481;SDS011;42384;45.186;19.958;2024-03-02T12:43:57;14.67;;;10.37;;
56481;SDS011;42384;45.186;19.958;2024-03-02T12:46:23;16.10;;;11.70;;
56481;SDS011;42384;45.186;19.958;2024-03-02T12:48:49;16.85;;;11.68;;
56481;SDS011;42384;45.186;19.958;2024-03-02T12:51:15;20.90;;;10.65;;
56481;SDS011;42384;45.186;19.958;2024-03-02T12:53:42;16.77;;;10.52;;
56481;SDS011;42384;45.186;19.958;2024-03-02T12:56:08;19.27;;;10.98;;
56481;SDS011;42384;45.186;19.958;2024-03-02T12:58:40;21.05;;;11.88;;
56481;SDS011;42384;45.186;19.958;2024-03-02T13:01:07;16.98;;;11.52;;
56481;SDS011;42384;45.186;19.958;2024-03-02T13:03:39;18.88;;;11.60;;
56481;SDS011;42384;45.186;19.958;2024-03-02T13:06:06;24.08;;;11.55;;
56481;SDS011;42384;45.186;19.958;2024-03-02T13:08:32;20.25;;;11.63;;
56481;SDS011;42384;45.186;19.958;2024-03-02T13:10:59;18.60;;;11.30;;
56481;SDS011;42384;45.186;19.958;2024-03-02T13:13:25;19.70;;;12.05;;
56481;SDS011;42384;45.186;19.958;2024-03-02T13:15:55;18.08;;;10.63;;
56481;SDS011;42384;45.186;19.958;2024-03-02T13:18:21;20.42;;;10.65;;
56481;SDS011;42384;45.186;19.958;2024-03-02T13:20:48;16.65;;;10.82;;
56481;SDS011;42384;45.186;19.958;2024-03-02T13:23:15;14.75;;;9.88;;
56481;SDS011;42384;45.186;19.958;2024-03-02T13:25:41;11.80;;;6.75;;
56481;SDS011;42384;45.186;19.958;2024-03-02T13:30:34;11.27;;;4.93;;
56481;SDS011;42384;45.186;19.958;2024-03-02T13:33:00;7.80;;;4.38;;
56481;SDS011;42384;45.186;19.958;2024-03-02T13:35:27;13.88;;;5.60;;
56481;SDS011;42384;45.186;19.958;2024-03-02T13:37:53;9.80;;;5.38;;
56481;SDS011;42384;45.186;19.958;2024-03-02T13:40:19;7.57;;;4.88;;
56481;SDS011;42384;45.186;19.958;2024-03-02T13:42:46;11.45;;;5.05;;
56481;SDS011;42384;45.186;19.958;2024-03-02T13:47:38;11.10;;;5.65;;
56481;SDS011;42384;45.186;19.958;2024-03-02T13:50:05;8.55;;;5.30;;
56481;SDS011;42384;45.186;19.958;2024-03-02T13:52:32;10.30;;;5.38;;
56481;SDS011;42384;45.186;19.958;2024-03-02T13:54:59;7.68;;;4.95;;
56481;SDS011;42384;45.186;19.958;2024-03-02T13:57:25;10.73;;;5.88;;
56481;SDS011;42384;45.186;19.958;2024-03-02T13:59:51;8.90;;;5.75;;
56481;SDS011;42384;45.186;19.958;2024-03-02T14:02:18;9.55;;;5.18;;
56481;SDS011;42384;45.186;19.958;2024-03-02T14:04:44;8.00;;;5.03;;
56481;SDS011;42384;45.186;19.958;2024-03-02T14:07:10;10.40;;;6.45;;
56481;SDS011;42384;45.186;19.958;2024-03-02T14:09:37;8.50;;;5.43;;
56481;SDS011;42384;45.186;19.958;2024-03-02T14:12:03;10.43;;;5.80;;
56481;SDS011;42384;45.186;19.958;2024-03-02T14:16:56;10.20;;;5.75;;
56481;SDS011;42384;45.186;19.958;2024-03-02T14:19:26;9.13;;;6.22;;
56481;SDS011;42384;45.186;19.958;2024-03-02T14:21:52;10.82;;;5.28;;
56481;SDS011;42384;45.186;19.958;2024-03-02T14:24:18;8.40;;;5.03;;
56481;SDS011;42384;45.186;19.958;2024-03-02T14:26:49;6.65;;;5.05;;
56481;SDS011;42384;45.186;19.958;2024-03-02T14:29:15;9.05;;;4.57;;
56481;SDS011;42384;45.186;19.958;2024-03-02T14:31:41;9.60;;;5.10;;
56481;SDS011;42384;45.186;19.958;2024-03-02T14:34:07;8.38;;;5.03;;
56481;SDS011;42384;45.186;19.958;2024-03-02T14:36:34;9.23;;;5.93;;
56481;SDS011;42384;45.186;19.958;2024-03-02T14:39:00;9.25;;;5.20;;
56481;SDS011;42384;45.186;19.958;2024-03-02T14:41:26;9.63;;;4.40;;